Terminal Aerodrome Forecast
Issued by NWS

Home | Current Version | Previous Version | Text Only | Print | Product List | Glossary On
Versions: 1 2 3 4 5 6 7 8 9 10 11 12 13 14 15 16 17 18 19 20 21 22 23 24 25 26 27 28 29 30 31 32 33 34
000
FTUS45 KGJT 241822 AAA
TAFDRO
TAF AMD
KDRO 241822Z 2418/2518 30020G28KT P6SM FEW100
     FM250100 31016G25KT P6SM FEW110 FEW250
     FM250400 30008KT P6SM FEW100 FEW250
     FM251100 02005KT P6SM FEW100 FEW200
     FM251700 20004KT P6SM SKC=

USA.gov is the U.S. government's official web portal to all federal, state and local government web resources and services.